sensor_id;sensor_type;location;lat;lon;timestamp;pressure;altitude;pressure_sealevel;temperature;humidity
75668;BME280;64266;48.798;44.756;2023-06-14T00:00:05;100444.56;;;22.70;37.22
75668;BME280;64266;48.798;44.756;2023-06-14T00:05:10;100447.09;;;22.66;37.63
75668;BME280;64266;48.798;44.756;2023-06-14T00:10:14;100448.38;;;22.55;37.52
75668;BME280;64266;48.798;44.756;2023-06-14T00:15:18;100438.91;;;22.44;37.60
75668;BME280;64266;48.798;44.756;2023-06-14T00:20:22;100424.31;;;22.31;38.12
75668;BME280;64266;48.798;44.756;2023-06-14T00:25:26;100431.84;;;22.21;38.17
75668;BME280;64266;48.798;44.756;2023-06-14T00:30:31;100442.66;;;22.21;38.11
75668;BME280;64266;48.798;44.756;2023-06-14T00:35:36;100446.03;;;22.12;38.28
75668;BME280;64266;48.798;44.756;2023-06-14T00:40:38;100451.34;;;22.04;38.55
75668;BME280;64266;48.798;44.756;2023-06-14T00:45:42;100455.34;;;22.06;38.95
75668;BME280;64266;48.798;44.756;2023-06-14T00:50:45;100460.94;;;22.10;39.20
75668;BME280;64266;48.798;44.756;2023-06-14T00:55:50;100460.25;;;22.04;38.62
75668;BME280;64266;48.798;44.756;2023-06-14T01:00:53;100458.75;;;21.98;38.83
75668;BME280;64266;48.798;44.756;2023-06-14T01:06:05;100445.53;;;21.83;38.92
75668;BME280;64266;48.798;44.756;2023-06-14T01:11:22;100459.34;;;21.95;39.36
75668;BME280;64266;48.798;44.756;2023-06-14T01:16:30;100459.44;;;21.90;39.32
75668;BME280;64266;48.798;44.756;2023-06-14T01:21:34;100447.63;;;21.86;39.41
75668;BME280;64266;48.798;44.756;2023-06-14T01:26:44;100456.13;;;21.93;39.65
75668;BME280;64266;48.798;44.756;2023-06-14T01:31:48;100443.22;;;21.90;39.61
75668;BME280;64266;48.798;44.756;2023-06-14T01:36:53;100457.94;;;21.98;39.52
75668;BME280;64266;48.798;44.756;2023-06-14T01:41:58;100463.34;;;21.98;39.48
75668;BME280;64266;48.798;44.756;2023-06-14T01:47:04;100461.13;;;22.00;39.59
75668;BME280;64266;48.798;44.756;2023-06-14T01:52:07;100429.13;;;21.80;39.59
75668;BME280;64266;48.798;44.756;2023-06-14T01:57:12;100427.09;;;21.85;39.93
75668;BME280;64266;48.798;44.756;2023-06-14T02:02:15;100461.88;;;22.05;40.03
75668;BME280;64266;48.798;44.756;2023-06-14T02:07:17;100460.84;;;22.01;39.95
75668;BME280;64266;48.798;44.756;2023-06-14T02:12:20;100474.34;;;22.15;40.24
75668;BME280;64266;48.798;44.756;2023-06-14T02:17:23;100475.16;;;22.15;40.76
75668;BME280;64266;48.798;44.756;2023-06-14T02:22:25;100472.84;;;22.23;41.13
75668;BME280;64266;48.798;44.756;2023-06-14T02:27:28;100474.94;;;22.39;40.37
75668;BME280;64266;48.798;44.756;2023-06-14T02:32:31;100476.59;;;22.62;40.71
75668;BME280;64266;48.798;44.756;2023-06-14T02:37:34;100476.25;;;22.91;39.64
75668;BME280;64266;48.798;44.756;2023-06-14T02:42:37;100474.66;;;23.12;39.93
75668;BME280;64266;48.798;44.756;2023-06-14T02:47:40;100461.69;;;23.45;37.85
75668;BME280;64266;48.798;44.756;2023-06-14T02:52:43;100467.09;;;23.76;37.10
75668;BME280;64266;48.798;44.756;2023-06-14T02:57:47;100463.72;;;24.10;36.71
75668;BME280;64266;48.798;44.756;2023-06-14T03:02:51;100463.25;;;24.73;35.83
75668;BME280;64266;48.798;44.756;2023-06-14T03:07:55;100468.94;;;25.57;34.80
75668;BME280;64266;48.798;44.756;2023-06-14T03:12:59;100456.88;;;26.72;32.65
75668;BME280;64266;48.798;44.756;2023-06-14T03:18:04;100473.50;;;27.89;30.23
75668;BME280;64266;48.798;44.756;2023-06-14T03:23:07;100453.47;;;28.70;29.84
75668;BME280;64266;48.798;44.756;2023-06-14T03:28:12;100462.75;;;28.29;30.52
75668;BME280;64266;48.798;44.756;2023-06-14T03:33:15;100456.00;;;27.78;30.19
75668;BME280;64266;48.798;44.756;2023-06-14T03:38:19;100457.72;;;27.71;30.71
75668;BME280;64266;48.798;44.756;2023-06-14T03:43:21;100457.91;;;27.66;30.75
75668;BME280;64266;48.798;44.756;2023-06-14T03:48:24;100435.81;;;27.34;30.55
75668;BME280;64266;48.798;44.756;2023-06-14T03:53:28;100442.44;;;27.45;31.59
75668;BME280;64266;48.798;44.756;2023-06-14T03:58:32;100449.75;;;27.33;32.59
75668;BME280;64266;48.798;44.756;2023-06-14T04:03:35;100446.03;;;27.37;32.47
75668;BME280;64266;48.798;44.756;2023-06-14T04:08:38;100433.75;;;28.00;32.30
75668;BME280;64266;48.798;44.756;2023-06-14T04:13:43;100431.28;;;28.99;32.18
75668;BME280;64266;48.798;44.756;2023-06-14T04:18:47;100432.22;;;30.44;30.63
75668;BME280;64266;48.798;44.756;2023-06-14T04:23:51;100427.06;;;31.39;27.99
75668;BME280;64266;48.798;44.756;2023-06-14T04:28:59;100437.75;;;31.66;27.48
75668;BME280;64266;48.798;44.756;2023-06-14T04:34:12;100438.25;;;31.49;28.44
75668;BME280;64266;48.798;44.756;2023-06-14T04:39:27;100426.19;;;31.12;29.87
75668;BME280;64266;48.798;44.756;2023-06-14T04:44:31;100415.59;;;30.91;28.90
75668;BME280;64266;48.798;44.756;2023-06-14T04:49:36;100416.91;;;30.97;30.53
75668;BME280;64266;48.798;44.756;2023-06-14T04:54:40;100421.22;;;31.86;28.31
75668;BME280;64266;48.798;44.756;2023-06-14T04:59:51;100410.13;;;32.91;27.08
75668;BME280;64266;48.798;44.756;2023-06-14T05:05:00;100417.25;;;33.29;24.91
75668;BME280;64266;48.798;44.756;2023-06-14T05:10:06;100409.78;;;33.33;24.20
75668;BME280;64266;48.798;44.756;2023-06-14T05:15:10;100411.88;;;33.94;22.67
75668;BME280;64266;48.798;44.756;2023-06-14T05:20:14;100400.59;;;34.92;21.84
75668;BME280;64266;48.798;44.756;2023-06-14T05:25:19;100391.63;;;35.52;20.38
75668;BME280;64266;48.798;44.756;2023-06-14T05:30:24;100392.75;;;34.98;20.93
75668;BME280;64266;48.798;44.756;2023-06-14T05:35:27;100383.28;;;35.02;21.20
75668;BME280;64266;48.798;44.756;2023-06-14T05:40:31;100364.03;;;35.09;20.01
75668;BME280;64266;48.798;44.756;2023-06-14T05:45:34;100392.09;;;34.36;21.45
75668;BME280;64266;48.798;44.756;2023-06-14T05:50:38;100397.66;;;33.85;22.19
75668;BME280;64266;48.798;44.756;2023-06-14T05:55:43;100397.69;;;33.88;22.74
75668;BME280;64266;48.798;44.756;2023-06-14T06:00:48;100383.88;;;33.77;22.18
75668;BME280;64266;48.798;44.756;2023-06-14T06:05:52;100362.41;;;34.04;22.25
75668;BME280;64266;48.798;44.756;2023-06-14T06:10:56;100389.28;;;35.40;21.34
75668;BME280;64266;48.798;44.756;2023-06-14T06:15:58;100379.75;;;36.15;20.49
75668;BME280;64266;48.798;44.756;2023-06-14T06:21:03;100366.41;;;35.46;20.15
75668;BME280;64266;48.798;44.756;2023-06-14T06:26:06;100378.63;;;35.31;23.16
75668;BME280;64266;48.798;44.756;2023-06-14T06:31:09;100375.03;;;35.90;22.75
75668;BME280;64266;48.798;44.756;2023-06-14T06:36:29;100353.16;;;36.56;22.44
75668;BME280;64266;48.798;44.756;2023-06-14T06:41:32;100374.63;;;36.20;23.91
75668;BME280;64266;48.798;44.756;2023-06-14T06:46:39;100348.53;;;36.28;24.19
75668;BME280;64266;48.798;44.756;2023-06-14T06:51:52;100353.97;;;36.42;24.94
75668;BME280;64266;48.798;44.756;2023-06-14T06:57:11;100349.13;;;36.71;24.76
75668;BME280;64266;48.798;44.756;2023-06-14T07:02:24;100340.00;;;37.36;16.11
75668;BME280;64266;48.798;44.756;2023-06-14T07:07:28;100348.22;;;37.88;14.70
75668;BME280;64266;48.798;44.756;2023-06-14T07:12:32;100340.72;;;37.47;14.99
75668;BME280;64266;48.798;44.756;2023-06-14T07:17:38;100330.34;;;36.38;15.86
75668;BME280;64266;48.798;44.756;2023-06-14T07:22:43;100318.72;;;35.77;16.93
75668;BME280;64266;48.798;44.756;2023-06-14T07:27:46;100320.69;;;35.42;17.61
75668;BME280;64266;48.798;44.756;2023-06-14T07:32:48;100323.47;;;35.27;17.90
75668;BME280;64266;48.798;44.756;2023-06-14T07:37:53;100318.34;;;35.26;17.35
75668;BME280;64266;48.798;44.756;2023-06-14T07:42:57;100286.72;;;36.05;17.24
75668;BME280;64266;48.798;44.756;2023-06-14T07:48:02;100299.41;;;36.64;16.80
75668;BME280;64266;48.798;44.756;2023-06-14T07:53:07;100247.59;;;36.82;16.52
75668;BME280;64266;48.798;44.756;2023-06-14T07:58:10;100286.69;;;37.29;15.67
75668;BME280;64266;48.798;44.756;2023-06-14T08:03:13;100291.56;;;37.18;13.78
75668;BME280;64266;48.798;44.756;2023-06-14T08:08:16;100289.09;;;36.79;13.06
75668;BME280;64266;48.798;44.756;2023-06-14T08:13:20;100292.06;;;36.36;14.01
75668;BME280;64266;48.798;44.756;2023-06-14T08:18:24;100298.88;;;36.18;15.43
75668;BME280;64266;48.798;44.756;2023-06-14T08:23:26;100288.28;;;35.92;15.79
75668;BME280;64266;48.798;44.756;2023-06-14T08:28:29;100295.06;;;35.55;15.86
75668;BME280;64266;48.798;44.756;2023-06-14T08:33:36;100273.81;;;35.49;16.71
75668;BME280;64266;48.798;44.756;2023-06-14T08:38:40;100293.50;;;35.51;16.57
75668;BME280;64266;48.798;44.756;2023-06-14T08:43:46;100263.56;;;35.42;16.12
75668;BME280;64266;48.798;44.756;2023-06-14T08:48:52;100234.81;;;35.36;17.08
75668;BME280;64266;48.798;44.756;2023-06-14T08:54:02;100267.88;;;35.64;17.02
75668;BME280;64266;48.798;44.756;2023-06-14T08:59:07;100267.09;;;35.71;17.33
75668;BME280;64266;48.798;44.756;2023-06-14T09:04:11;100261.97;;;35.48;18.51
75668;BME280;64266;48.798;44.756;2023-06-14T09:09:14;100277.72;;;35.44;19.77
75668;BME280;64266;48.798;44.756;2023-06-14T09:14:19;100264.78;;;35.30;20.19
75668;BME280;64266;48.798;44.756;2023-06-14T09:19:25;100265.19;;;35.25;19.89
75668;BME280;64266;48.798;44.756;2023-06-14T09:24:29;100263.22;;;35.12;19.41
75668;BME280;64266;48.798;44.756;2023-06-14T09:29:32;100259.25;;;34.99;19.96
75668;BME280;64266;48.798;44.756;2023-06-14T09:35:01;100263.16;;;35.01;19.46
75668;BME280;64266;48.798;44.756;2023-06-14T09:40:05;100259.63;;;34.79;20.05
75668;BME280;64266;48.798;44.756;2023-06-14T09:45:11;100248.63;;;34.72;21.03
75668;BME280;64266;48.798;44.756;2023-06-14T09:50:17;100248.63;;;34.72;21.17
75668;BME280;64266;48.798;44.756;2023-06-14T09:55:21;100252.16;;;34.66;22.22
75668;BME280;64266;48.798;44.756;2023-06-14T10:00:25;100251.66;;;34.43;22.66
75668;BME280;64266;48.798;44.756;2023-06-14T10:05:29;100265.03;;;34.30;22.93
75668;BME280;64266;48.798;44.756;2023-06-14T10:10:32;100259.53;;;34.30;22.46
75668;BME280;64266;48.798;44.756;2023-06-14T10:20:51;100235.88;;;34.22;23.12
75668;BME280;64266;48.798;44.756;2023-06-14T10:25:57;100262.28;;;34.37;23.18
75668;BME280;64266;48.798;44.756;2023-06-14T10:31:10;100247.75;;;34.33;23.41
75668;BME280;64266;48.798;44.756;2023-06-14T10:41:28;100266.22;;;34.36;23.59
75668;BME280;64266;48.798;44.756;2023-06-14T10:46:31;100276.44;;;34.32;23.37
75668;BME280;64266;48.798;44.756;2023-06-14T10:51:45;100263.41;;;34.22;24.25
75668;BME280;64266;48.798;44.756;2023-06-14T10:56:51;100256.31;;;34.21;23.83
75668;BME280;64266;48.798;44.756;2023-06-14T11:02:27;100257.88;;;34.15;24.28
75668;BME280;64266;48.798;44.756;2023-06-14T11:08:02;100248.38;;;34.09;24.45
75668;BME280;64266;48.798;44.756;2023-06-14T11:13:09;100265.44;;;34.36;24.27
75668;BME280;64266;48.798;44.756;2023-06-14T11:18:13;100269.38;;;34.42;24.08
75668;BME280;64266;48.798;44.756;2023-06-14T11:23:17;100243.38;;;34.28;24.48
75668;BME280;64266;48.798;44.756;2023-06-14T11:28:20;100264.25;;;34.33;24.79
75668;BME280;64266;48.798;44.756;2023-06-14T11:33:24;100272.09;;;34.27;25.22
75668;BME280;64266;48.798;44.756;2023-06-14T11:38:27;100260.25;;;34.13;25.22
75668;BME280;64266;48.798;44.756;2023-06-14T11:43:31;100267.22;;;34.00;25.56
75668;BME280;64266;48.798;44.756;2023-06-14T11:48:41;100261.25;;;33.80;26.73
75668;BME280;64266;48.798;44.756;2023-06-14T11:53:44;100263.97;;;33.73;26.09
75668;BME280;64266;48.798;44.756;2023-06-14T11:58:47;100268.72;;;33.79;26.46
75668;BME280;64266;48.798;44.756;2023-06-14T12:03:52;100265.38;;;33.49;26.91
75668;BME280;64266;48.798;44.756;2023-06-14T12:08:56;100283.81;;;33.45;27.01
75668;BME280;64266;48.798;44.756;2023-06-14T12:14:00;100286.38;;;33.20;28.44
75668;BME280;64266;48.798;44.756;2023-06-14T12:19:12;100282.28;;;33.00;28.95
75668;BME280;64266;48.798;44.756;2023-06-14T12:24:15;100309.94;;;32.81;30.65
75668;BME280;64266;48.798;44.756;2023-06-14T12:29:19;100319.22;;;32.33;33.41
75668;BME280;64266;48.798;44.756;2023-06-14T12:34:25;100313.72;;;31.77;37.61
75668;BME280;64266;48.798;44.756;2023-06-14T12:39:30;100329.06;;;31.32;39.07
75668;BME280;64266;48.798;44.756;2023-06-14T12:44:36;100341.56;;;31.07;38.54
75668;BME280;64266;48.798;44.756;2023-06-14T12:49:43;100339.34;;;30.93;36.76
75668;BME280;64266;48.798;44.756;2023-06-14T12:54:47;100338.91;;;30.91;35.59
75668;BME280;64266;48.798;44.756;2023-06-14T12:59:49;100336.44;;;30.86;35.30
75668;BME280;64266;48.798;44.756;2023-06-14T13:04:52;100336.09;;;30.88;34.51
75668;BME280;64266;48.798;44.756;2023-06-14T13:09:55;100330.91;;;30.83;34.63
75668;BME280;64266;48.798;44.756;2023-06-14T13:14:59;100340.06;;;30.90;33.26
75668;BME280;64266;48.798;44.756;2023-06-14T13:20:03;100333.84;;;30.93;33.50
75668;BME280;64266;48.798;44.756;2023-06-14T13:25:07;100323.41;;;30.99;33.41
75668;BME280;64266;48.798;44.756;2023-06-14T13:30:11;100312.28;;;30.92;32.57
75668;BME280;64266;48.798;44.756;2023-06-14T13:35:17;100302.88;;;30.89;32.20
75668;BME280;64266;48.798;44.756;2023-06-14T13:40:20;100294.28;;;30.91;32.29
75668;BME280;64266;48.798;44.756;2023-06-14T13:45:23;100286.38;;;30.86;31.89
75668;BME280;64266;48.798;44.756;2023-06-14T13:50:27;100292.06;;;30.96;32.44
75668;BME280;64266;48.798;44.756;2023-06-14T13:55:31;100269.94;;;30.86;32.34
75668;BME280;64266;48.798;44.756;2023-06-14T14:00:34;100271.66;;;30.94;32.65
75668;BME280;64266;48.798;44.756;2023-06-14T14:05:39;100272.09;;;30.96;31.78
75668;BME280;64266;48.798;44.756;2023-06-14T14:10:42;100250.03;;;30.89;32.30
75668;BME280;64266;48.798;44.756;2023-06-14T14:15:44;100247.59;;;30.84;33.03
75668;BME280;64266;48.798;44.756;2023-06-14T14:20:50;100250.22;;;30.77;32.84
75668;BME280;64266;48.798;44.756;2023-06-14T14:25:53;100249.72;;;30.71;33.44
75668;BME280;64266;48.798;44.756;2023-06-14T14:30:56;100251.19;;;30.65;33.60
75668;BME280;64266;48.798;44.756;2023-06-14T14:35:58;100216.75;;;30.41;32.92
75668;BME280;64266;48.798;44.756;2023-06-14T14:41:07;100260.00;;;30.55;33.66
75668;BME280;64266;48.798;44.756;2023-06-14T14:46:10;100254.91;;;30.53;33.44
75668;BME280;64266;48.798;44.756;2023-06-14T14:51:14;100248.44;;;30.42;33.12
75668;BME280;64266;48.798;44.756;2023-06-14T14:56:16;100247.53;;;30.38;33.07
75668;BME280;64266;48.798;44.756;2023-06-14T15:01:19;100248.69;;;30.37;33.15
75668;BME280;64266;48.798;44.756;2023-06-14T15:06:22;100241.03;;;30.24;35.06
75668;BME280;64266;48.798;44.756;2023-06-14T15:11:24;100250.94;;;30.13;35.87
75668;BME280;64266;48.798;44.756;2023-06-14T15:16:27;100271.59;;;30.10;36.01
75668;BME280;64266;48.798;44.756;2023-06-14T15:21:29;100255.69;;;29.96;36.50
75668;BME280;64266;48.798;44.756;2023-06-14T15:26:32;100261.66;;;29.83;37.11
75668;BME280;64266;48.798;44.756;2023-06-14T15:31:34;100262.81;;;29.82;37.86
75668;BME280;64266;48.798;44.756;2023-06-14T15:36:37;100257.44;;;29.70;37.73
75668;BME280;64266;48.798;44.756;2023-06-14T15:41:40;100262.81;;;29.66;37.77
75668;BME280;64266;48.798;44.756;2023-06-14T15:46:43;100256.41;;;29.58;37.68
75668;BME280;64266;48.798;44.756;2023-06-14T15:51:46;100267.34;;;29.58;37.92
75668;BME280;64266;48.798;44.756;2023-06-14T15:56:49;100262.50;;;29.52;38.21
75668;BME280;64266;48.798;44.756;2023-06-14T16:01:51;100282.25;;;29.45;37.93
75668;BME280;64266;48.798;44.756;2023-06-14T16:06:54;100291.16;;;29.42;37.85
75668;BME280;64266;48.798;44.756;2023-06-14T16:11:57;100298.06;;;29.36;38.20
75668;BME280;64266;48.798;44.756;2023-06-14T16:17:00;100297.44;;;29.27;38.60
75668;BME280;64266;48.798;44.756;2023-06-14T16:22:03;100295.38;;;29.09;38.63
75668;BME280;64266;48.798;44.756;2023-06-14T16:27:10;100283.75;;;28.96;39.32
75668;BME280;64266;48.798;44.756;2023-06-14T16:32:17;100296.09;;;28.90;39.45
75668;BME280;64266;48.798;44.756;2023-06-14T16:37:20;100301.19;;;28.76;39.92
75668;BME280;64266;48.798;44.756;2023-06-14T16:42:23;100297.22;;;28.61;40.36
75668;BME280;64266;48.798;44.756;2023-06-14T16:47:27;100301.28;;;28.51;40.55
75668;BME280;64266;48.798;44.756;2023-06-14T16:52:29;100314.13;;;28.51;41.28
75668;BME280;64266;48.798;44.756;2023-06-14T16:57:33;100294.44;;;28.30;41.39
75668;BME280;64266;48.798;44.756;2023-06-14T17:02:35;100306.09;;;28.30;41.26
75668;BME280;64266;48.798;44.756;2023-06-14T17:07:38;100337.81;;;28.35;41.05
75668;BME280;64266;48.798;44.756;2023-06-14T17:12:41;100309.47;;;27.99;42.19
75668;BME280;64266;48.798;44.756;2023-06-14T17:17:43;100321.06;;;27.96;42.37
75668;BME280;64266;48.798;44.756;2023-06-14T17:22:46;100351.72;;;27.93;42.57
75668;BME280;64266;48.798;44.756;2023-06-14T17:27:49;100347.34;;;27.77;42.95
75668;BME280;64266;48.798;44.756;2023-06-14T17:32:55;100376.84;;;27.75;43.23
75668;BME280;64266;48.798;44.756;2023-06-14T17:37:57;100362.09;;;27.52;43.58
75668;BME280;64266;48.798;44.756;2023-06-14T17:43:00;100384.44;;;27.45;44.18
75668;BME280;64266;48.798;44.756;2023-06-14T17:48:04;100389.41;;;27.31;44.47
75668;BME280;64266;48.798;44.756;2023-06-14T17:53:07;100409.97;;;27.40;45.02
75668;BME280;64266;48.798;44.756;2023-06-14T17:58:10;100368.25;;;27.04;45.75
75668;BME280;64266;48.798;44.756;2023-06-14T18:03:13;100390.50;;;27.18;45.64
75668;BME280;64266;48.798;44.756;2023-06-14T18:08:16;100424.31;;;27.29;46.22
75668;BME280;64266;48.798;44.756;2023-06-14T18:13:19;100401.94;;;27.11;45.97
75668;BME280;64266;48.798;44.756;2023-06-14T18:18:21;100418.31;;;27.23;46.29
75668;BME280;64266;48.798;44.756;2023-06-14T18:23:24;100408.44;;;27.19;46.44
75668;BME280;64266;48.798;44.756;2023-06-14T18:28:26;100412.28;;;27.18;46.36
75668;BME280;64266;48.798;44.756;2023-06-14T18:33:29;100392.38;;;27.05;46.79
75668;BME280;64266;48.798;44.756;2023-06-14T18:38:32;100384.56;;;27.04;46.70
75668;BME280;64266;48.798;44.756;2023-06-14T18:43:34;100402.59;;;27.08;46.59
75668;BME280;64266;48.798;44.756;2023-06-14T18:48:38;100408.63;;;27.14;46.72
75668;BME280;64266;48.798;44.756;2023-06-14T18:53:41;100388.69;;;27.10;47.04
75668;BME280;64266;48.798;44.756;2023-06-14T18:58:43;100379.91;;;27.04;47.07
75668;BME280;64266;48.798;44.756;2023-06-14T19:03:46;100359.25;;;26.91;47.36
75668;BME280;64266;48.798;44.756;2023-06-14T19:08:48;100364.69;;;26.91;47.61
75668;BME280;64266;48.798;44.756;2023-06-14T19:13:51;100365.94;;;26.93;47.52
75668;BME280;64266;48.798;44.756;2023-06-14T19:18:55;100373.56;;;27.00;48.09
75668;BME280;64266;48.798;44.756;2023-06-14T19:23:59;100362.41;;;26.93;48.19
75668;BME280;64266;48.798;44.756;2023-06-14T19:29:02;100376.72;;;27.02;48.09
75668;BME280;64266;48.798;44.756;2023-06-14T19:34:06;100360.94;;;26.96;48.95
75668;BME280;64266;48.798;44.756;2023-06-14T19:39:08;100355.16;;;26.85;48.87
75668;BME280;64266;48.798;44.756;2023-06-14T19:44:11;100352.94;;;26.78;49.46
75668;BME280;64266;48.798;44.756;2023-06-14T19:49:13;100346.91;;;26.73;49.35
75668;BME280;64266;48.798;44.756;2023-06-14T19:54:15;100347.91;;;26.68;49.41
75668;BME280;64266;48.798;44.756;2023-06-14T19:59:18;100370.56;;;26.60;49.88
75668;BME280;64266;48.798;44.756;2023-06-14T20:04:20;100363.13;;;26.49;50.18
75668;BME280;64266;48.798;44.756;2023-06-14T20:09:26;100364.94;;;26.24;50.48
75668;BME280;64266;48.798;44.756;2023-06-14T20:14:32;100366.59;;;26.08;51.18
75668;BME280;64266;48.798;44.756;2023-06-14T20:19:36;100387.09;;;26.05;51.99
75668;BME280;64266;48.798;44.756;2023-06-14T20:24:38;100391.22;;;26.03;52.25
75668;BME280;64266;48.798;44.756;2023-06-14T20:29:41;100393.69;;;25.96;53.09
75668;BME280;64266;48.798;44.756;2023-06-14T20:34:44;100386.25;;;25.84;53.46
75668;BME280;64266;48.798;44.756;2023-06-14T20:39:47;100392.31;;;25.81;53.72
75668;BME280;64266;48.798;44.756;2023-06-14T20:44:50;100369.22;;;25.66;54.12
75668;BME280;64266;48.798;44.756;2023-06-14T20:49:54;100398.41;;;25.78;54.53
75668;BME280;64266;48.798;44.756;2023-06-14T20:54:58;100405.94;;;25.72;54.90
75668;BME280;64266;48.798;44.756;2023-06-14T21:00:03;100408.50;;;25.69;55.66
75668;BME280;64266;48.798;44.756;2023-06-14T21:05:13;100401.53;;;25.59;56.49
75668;BME280;64266;48.798;44.756;2023-06-14T21:10:16;100407.91;;;25.63;57.46
75668;BME280;64266;48.798;44.756;2023-06-14T21:15:21;100404.44;;;25.54;57.86
75668;BME280;64266;48.798;44.756;2023-06-14T21:20:27;100416.09;;;25.46;58.57
75668;BME280;64266;48.798;44.756;2023-06-14T21:25:30;100394.75;;;25.27;58.54
75668;BME280;64266;48.798;44.756;2023-06-14T21:30:34;100407.81;;;25.34;58.12
75668;BME280;64266;48.798;44.756;2023-06-14T21:35:38;100393.94;;;25.27;58.39
75668;BME280;64266;48.798;44.756;2023-06-14T21:40:40;100394.59;;;25.24;58.06
75668;BME280;64266;48.798;44.756;2023-06-14T21:45:43;100419.66;;;25.29;58.17
75668;BME280;64266;48.798;44.756;2023-06-14T21:50:47;100397.81;;;25.17;58.36
75668;BME280;64266;48.798;44.756;2023-06-14T21:55:50;100406.91;;;25.21;58.20
75668;BME280;64266;48.798;44.756;2023-06-14T22:00:53;100413.28;;;25.17;57.89
75668;BME280;64266;48.798;44.756;2023-06-14T22:05:56;100426.88;;;25.08;57.95
75668;BME280;64266;48.798;44.756;2023-06-14T22:11:00;100418.72;;;25.08;57.33
75668;BME280;64266;48.798;44.756;2023-06-14T22:16:11;100429.25;;;25.01;56.99
75668;BME280;64266;48.798;44.756;2023-06-14T22:21:15;100424.16;;;25.08;57.18
75668;BME280;64266;48.798;44.756;2023-06-14T22:26:22;100431.84;;;24.98;57.89
75668;BME280;64266;48.798;44.756;2023-06-14T22:31:42;100439.50;;;24.87;57.77
75668;BME280;64266;48.798;44.756;2023-06-14T22:36:45;100421.28;;;24.62;59.45
75668;BME280;64266;48.798;44.756;2023-06-14T22:41:50;100413.44;;;24.43;59.30
75668;BME280;64266;48.798;44.756;2023-06-14T22:46:53;100419.84;;;24.39;59.96
75668;BME280;64266;48.798;44.756;2023-06-14T22:51:57;100432.94;;;24.45;59.53
75668;BME280;64266;48.798;44.756;2023-06-14T22:57:05;100413.28;;;24.22;60.46
75668;BME280;64266;48.798;44.756;2023-06-14T23:02:10;100405.94;;;24.14;60.73
75668;BME280;64266;48.798;44.756;2023-06-14T23:07:14;100421.19;;;24.10;60.49
75668;BME280;64266;48.798;44.756;2023-06-14T23:12:17;100415.09;;;23.96;60.82
75668;BME280;64266;48.798;44.756;2023-06-14T23:17:20;100418.94;;;24.04;60.92
75668;BME280;64266;48.798;44.756;2023-06-14T23:22:23;100417.81;;;23.96;60.35
75668;BME280;64266;48.798;44.756;2023-06-14T23:27:30;100411.72;;;23.91;60.75
75668;BME280;64266;48.798;44.756;2023-06-14T23:32:35;100405.53;;;23.90;60.30
75668;BME280;64266;48.798;44.756;2023-06-14T23:37:40;100425.13;;;23.96;60.53
75668;BME280;64266;48.798;44.756;2023-06-14T23:42:44;100409.00;;;23.82;60.37
75668;BME280;64266;48.798;44.756;2023-06-14T23:47:46;100396.41;;;23.78;60.29
75668;BME280;64266;48.798;44.756;2023-06-14T23:52:49;100404.19;;;23.79;60.08
75668;BME280;64266;48.798;44.756;2023-06-14T23:57:53;100394.94;;;23.71;60.50
